Time;durP1;ratioP1;P1;durP2;ratioP2;P2;SDS_P1;SDS_P2;PMS_P1;PMS_P2;Temp;Humidity;BMP_temperature;BMP_pressure;BME280_temperature;BME280_humidity;BME280_pressure;Samples;Min_cycle;Max_cycle;Signal;HPM_P1;HPM_P2
2023/07/05 00:00:05;;;;;;;4.03;1.77;;;;;;;15.90;86.34;96847.03;5047983;28;20139;-57
2023/07/05 00:02:32;;;;;;;4.32;1.80;;;;;;;15.82;86.77;96848.53;5048622;28;20045;-58
2023/07/05 00:04:59;;;;;;;5.55;2.20;;;;;;;15.82;87.23;96847.72;5047562;28;20037;-57
2023/07/05 00:07:25;;;;;;;4.70;2.28;;;;;;;15.93;85.90;96837.44;5042161;28;20040;-58
2023/07/05 00:09:52;;;;;;;4.47;1.85;;;;;;;15.84;86.64;96831.84;5045178;28;20162;-57
2023/07/05 00:12:19;;;;;;;4.22;1.98;;;;;;;15.59;88.59;96831.97;5046229;28;20043;-58
2023/07/05 00:14:45;;;;;;;4.68;1.95;;;;;;;15.69;87.41;96832.91;5047844;28;20065;-57
2023/07/05 00:17:12;;;;;;;4.15;1.92;;;;;;;15.62;87.74;96841.50;5040167;28;20049;-57
2023/07/05 00:19:39;;;;;;;6.03;2.00;;;;;;;15.66;87.22;96828.88;5040720;28;20095;-55
2023/07/05 00:22:05;;;;;;;4.60;2.30;;;;;;;15.73;87.05;96833.94;5052644;28;20044;-56
2023/07/05 00:24:34;;;;;;;4.00;1.75;;;;;;;15.67;87.88;96835.94;5041360;28;20041;-55
2023/07/05 00:27:00;;;;;;;4.32;1.88;;;;;;;15.55;88.48;96835.63;5046894;28;20083;-57
2023/07/05 00:29:27;;;;;;;6.13;1.98;;;;;;;15.58;87.97;96838.56;5042600;28;20515;-57
2023/07/05 00:31:53;;;;;;;4.60;2.20;;;;;;;15.64;87.99;96827.56;5044739;28;21419;-57
2023/07/05 00:34:20;;;;;;;5.15;2.03;;;;;;;15.76;87.35;96814.25;5042705;28;20037;-56
2023/07/05 00:36:47;;;;;;;6.07;1.75;;;;;;;15.89;85.97;96806.38;5048920;28;20041;-56
2023/07/05 00:39:14;;;;;;;3.50;1.63;;;;;;;16.03;84.94;96807.25;5048265;28;20041;-55
2023/07/05 00:41:41;;;;;;;3.47;1.75;;;;;;;16.03;85.39;96803.72;5048778;28;20040;-56
2023/07/05 00:44:08;;;;;;;4.47;2.00;;;;;;;15.96;86.26;96804.13;5053526;28;20041;-56
2023/07/05 00:46:35;;;;;;;3.83;2.13;;;;;;;16.02;85.77;96793.88;5054307;28;20073;-57
2023/07/05 00:49:14;;;;;;;3.75;1.83;;;;;;;16.10;85.02;96794.00;5046162;28;20085;-55
2023/07/05 00:51:51;;;;;;;3.53;1.75;;;;;;;16.27;84.08;96792.59;5041722;28;20057;-57
2023/07/05 00:54:23;;;;;;;4.63;1.60;;;;;;;16.38;82.89;96790.47;5032553;28;20043;-57
2023/07/05 00:56:54;;;;;;;3.65;1.83;;;;;;;16.31;84.27;96790.06;5044497;28;20040;-55
2023/07/05 00:59:24;;;;;;;3.72;1.88;;;;;;;16.44;82.70;96785.72;5046845;28;20117;-57
2023/07/05 01:01:51;;;;;;;3.47;1.60;;;;;;;16.47;82.62;96785.13;5048435;28;20047;-57
2023/07/05 01:04:32;;;;;;;6.43;2.00;;;;;;;16.55;81.97;96795.28;5044074;28;20049;-55
2023/07/05 01:06:58;;;;;;;5.97;2.00;;;;;;;16.63;81.58;96796.53;5046505;28;20037;-56
2023/07/05 01:09:26;;;;;;;4.35;2.28;;;;;;;16.68;81.31;96810.06;5043052;28;20041;-55
2023/07/05 01:12:01;;;;;;;3.22;1.75;;;;;;;16.85;80.45;96831.28;5048832;28;20049;-58
2023/07/05 01:14:36;;;;;;;4.07;2.20;;;;;;;16.98;79.80;96816.00;5040087;28;20056;-55
2023/07/05 01:17:49;;;;;;;3.10;1.48;;;;;;;17.13;78.91;96798.47;5045571;28;20055;-57
2023/07/05 01:20:34;;;;;;;2.95;1.85;;;;;;;17.21;78.32;96796.09;5050771;28;20045;-57
2023/07/05 01:23:07;;;;;;;3.20;1.70;;;;;;;17.17;78.79;96782.22;5044807;28;20047;-57
2023/07/05 01:25:54;;;;;;;4.20;1.95;;;;;;;17.26;78.76;96791.34;5049847;28;20050;-57
2023/07/05 01:28:40;;;;;;;3.65;1.40;;;;;;;17.21;79.92;96777.75;5039387;28;20128;-57
2023/07/05 01:31:30;;;;;;;3.88;1.55;;;;;;;17.36;78.71;96770.31;5045269;28;20052;-56
2023/07/05 01:34:02;;;;;;;3.35;1.38;;;;;;;17.27;79.72;96775.72;5046931;28;20423;-58
2023/07/05 01:36:31;;;;;;;3.17;1.45;;;;;;;17.37;78.97;96769.19;5043770;28;20039;-57
2023/07/05 01:39:00;;;;;;;2.70;1.25;;;;;;;17.42;78.70;96772.59;5042683;28;20124;-57
2023/07/05 01:41:27;;;;;;;3.60;1.60;;;;;;;17.42;78.82;96785.47;5043478;28;20037;-56
2023/07/05 01:43:55;;;;;;;4.53;1.50;;;;;;;17.35;79.65;96801.50;5037525;28;20067;-57
2023/07/05 01:46:27;;;;;;;3.17;1.40;;;;;;;17.35;79.65;96815.19;5038691;28;20033;-57
2023/07/05 01:49:02;;;;;;;;;;;;;;;17.23;80.39;96815.75;5053168;28;20044;-57
2023/07/05 01:51:39;;;;;;;2.85;1.30;;;;;;;17.14;81.22;96813.75;5040518;28;19959;-56
2023/07/05 01:54:12;;;;;;;2.97;1.33;;;;;;;17.10;82.03;96825.63;5054925;28;20070;-56
2023/07/05 01:56:58;;;;;;;3.42;1.70;;;;;;;16.92;83.83;96832.81;5044285;28;20041;-57
2023/07/05 01:59:34;;;;;;;3.78;1.58;;;;;;;16.90;84.20;96831.22;5033079;28;20037;-57
2023/07/05 02:02:02;;;;;;;4.30;1.60;;;;;;;16.92;83.78;96841.84;5039258;28;20137;-58
2023/07/05 02:04:35;;;;;;;2.50;1.58;;;;;;;17.04;83.54;96841.31;5045808;28;20038;-55
2023/07/05 02:07:08;;;;;;;2.67;1.35;;;;;;;17.07;83.18;96839.91;5048141;28;20041;-58
2023/07/05 02:09:36;;;;;;;3.22;1.40;;;;;;;17.03;83.74;96856.09;5051380;28;20069;-58
2023/07/05 02:12:04;;;;;;;3.72;1.48;;;;;;;17.08;83.27;96858.75;5046139;28;20049;-57
2023/07/05 02:14:31;;;;;;;3.78;1.50;;;;;;;17.18;82.90;96848.69;5038576;28;20136;-54
2023/07/05 02:16:57;;;;;;;2.95;1.52;;;;;;;17.20;82.97;96847.25;5053625;28;20152;-57
2023/07/05 02:19:24;;;;;;;4.85;1.48;;;;;;;17.20;83.22;96858.22;5046718;28;20136;-58
2023/07/05 02:21:51;;;;;;;3.28;1.58;;;;;;;17.12;85.02;96865.22;5042172;28;20048;-58
2023/07/05 02:24:18;;;;;;;2.70;1.48;;;;;;;17.14;84.47;96854.78;5045553;28;20487;-58
2023/07/05 02:26:44;;;;;;;3.40;1.40;;;;;;;17.15;84.14;96853.66;5045834;28;20044;-57
2023/07/05 02:29:12;;;;;;;4.43;1.83;;;;;;;17.16;84.53;96851.72;5048255;28;20459;-58
2023/07/05 02:31:41;;;;;;;4.35;1.65;;;;;;;17.21;84.10;96848.09;5042726;28;20048;-55
2023/07/05 02:34:07;;;;;;;5.30;1.77;;;;;;;17.10;84.71;96839.31;5036850;28;20047;-55
2023/07/05 02:36:34;;;;;;;5.07;1.75;;;;;;;17.14;85.64;96837.56;5043729;28;20098;-57
2023/07/05 02:39:00;;;;;;;4.72;1.75;;;;;;;17.07;85.87;96839.91;5046672;28;20045;-55
2023/07/05 02:41:27;;;;;;;4.93;1.75;;;;;;;17.07;85.80;96839.91;5041291;28;20040;-57
2023/07/05 02:43:55;;;;;;;4.75;1.70;;;;;;;17.00;86.40;96835.63;5048848;28;20037;-57
2023/07/05 02:46:25;;;;;;;3.80;1.30;;;;;;;17.07;86.13;96828.97;5043007;28;20041;-56
2023/07/05 02:48:55;;;;;;;3.40;1.57;;;;;;;16.84;86.79;96826.16;5046185;28;20620;-54
2023/07/05 02:51:22;;;;;;;4.22;1.58;;;;;;;16.83;86.43;96822.59;5043327;28;20045;-57
2023/07/05 02:53:48;;;;;;;4.32;1.52;;;;;;;16.85;86.51;96811.38;5038774;28;20045;-56
2023/07/05 02:56:15;;;;;;;3.20;1.50;;;;;;;16.76;86.78;96816.75;5038624;28;20115;-56
2023/07/05 02:58:42;;;;;;;3.40;1.67;;;;;;;16.70;86.68;96809.78;5052667;28;20044;-57
2023/07/05 03:01:08;;;;;;;3.13;1.30;;;;;;;16.71;86.32;96814.13;5044525;28;20044;-56
2023/07/05 03:03:35;;;;;;;2.65;1.27;;;;;;;16.63;86.78;96821.13;5052742;28;20044;-57
2023/07/05 03:06:02;;;;;;;4.55;1.38;;;;;;;16.69;86.34;96810.91;5044842;28;20480;-56
2023/07/05 03:08:30;;;;;;;4.25;2.10;;;;;;;16.78;85.89;96820.78;5048234;28;20045;-57
2023/07/05 03:10:58;;;;;;;2.72;1.27;;;;;;;16.75;86.18;96821.41;5045747;28;20037;-55
2023/07/05 03:13:28;;;;;;;3.15;1.40;;;;;;;16.79;86.07;96824.34;5041551;28;20053;-56
2023/07/05 03:15:55;;;;;;;6.28;1.73;;;;;;;16.72;86.30;96827.47;5051241;28;20049;-57
2023/07/05 03:18:23;;;;;;;3.88;1.40;;;;;;;16.55;87.58;96824.56;5037430;28;20041;-57
2023/07/05 03:20:49;;;;;;;3.10;1.17;;;;;;;16.51;87.81;96830.63;5042513;28;20048;-57
2023/07/05 03:23:16;;;;;;;2.80;1.35;;;;;;;16.58;87.17;96824.75;5059063;28;20192;-57
2023/07/05 03:26:16;;;;;;;3.08;1.05;;;;;;;16.58;87.01;96823.97;5038158;28;20035;-55
2023/07/05 03:28:42;;;;;;;3.45;1.20;;;;;;;16.45;87.72;96826.41;5012041;28;20055;-57
2023/07/05 03:31:12;;;;;;;4.78;1.13;;;;;;;16.45;87.98;96829.13;5046377;28;20431;-57
2023/07/05 03:33:39;;;;;;;2.10;1.00;;;;;;;16.43;88.53;96825.88;5046180;28;20076;-57
2023/07/05 03:36:14;;;;;;;2.63;1.10;;;;;;;16.46;88.31;96828.00;5043816;28;20482;-58
2023/07/05 03:38:41;;;;;;;2.97;1.10;;;;;;;16.52;88.27;96842.38;5045023;28;20038;-58
2023/07/05 03:41:16;;;;;;;7.10;2.15;;;;;;;16.46;88.87;96838.94;5039276;28;20132;-57
2023/07/05 03:43:47;;;;;;;2.53;0.88;;;;;;;16.56;88.78;96839.84;5042503;28;20053;-57
2023/07/05 03:46:15;;;;;;;2.40;1.00;;;;;;;16.54;89.36;96844.81;5042589;28;20029;-57
2023/07/05 03:48:44;;;;;;;2.88;1.10;;;;;;;16.50;89.71;96830.94;5039154;28;20047;-57
2023/07/05 03:51:12;;;;;;;2.05;1.20;;;;;;;16.68;88.71;96844.78;5047805;28;20036;-57
2023/07/05 03:53:39;;;;;;;2.80;1.35;;;;;;;16.77;88.43;96834.78;5037047;28;20224;-54
2023/07/05 03:56:08;;;;;;;1.85;0.90;;;;;;;16.87;88.22;96845.50;5043889;28;20044;-56
2023/07/05 03:58:35;;;;;;;3.83;1.10;;;;;;;16.77;88.98;96849.25;5054974;28;20559;-57
2023/07/05 04:01:09;;;;;;;1.92;0.90;;;;;;;16.70;89.72;96853.50;5050233;28;20045;-58
2023/07/05 04:03:35;;;;;;;2.67;1.10;;;;;;;16.58;91.39;96845.84;5042632;28;20107;-57
2023/07/05 04:06:02;;;;;;;2.97;1.45;;;;;;;16.44;92.71;96834.91;5049359;28;20639;-58
2023/07/05 04:08:29;;;;;;;2.60;1.20;;;;;;;16.50;92.35;96837.22;5053041;28;20128;-58
2023/07/05 04:10:56;;;;;;;2.92;1.02;;;;;;;16.54;92.38;96834.69;5057677;28;20044;-57
2023/07/05 04:13:22;;;;;;;4.13;1.23;;;;;;;16.47;92.96;96840.56;5047676;28;20132;-57
2023/07/05 04:15:59;;;;;;;2.70;1.20;;;;;;;16.44;93.88;96834.91;5045305;28;20128;-57
2023/07/05 04:18:27;;;;;;;2.65;1.38;;;;;;;16.45;94.00;96836.50;5040454;28;20119;-57
2023/07/05 04:20:54;;;;;;;2.40;1.42;;;;;;;16.43;94.06;96838.75;5041274;28;20037;-57
2023/07/05 04:23:21;;;;;;;2.83;1.10;;;;;;;16.48;93.81;96836.69;5052254;28;20052;-58
2023/07/05 04:25:48;;;;;;;2.95;1.40;;;;;;;16.60;93.59;96835.38;5038882;28;20041;-57
2023/07/05 04:28:14;;;;;;;4.20;1.70;;;;;;;16.73;92.58;96839.25;5053498;28;20074;-57
2023/07/05 04:30:41;;;;;;;2.78;1.60;;;;;;;16.73;93.02;96825.56;5047675;28;20041;-56
2023/07/05 04:33:07;;;;;;;2.67;1.48;;;;;;;16.74;92.54;96836.19;5048862;28;20449;-57
2023/07/05 04:35:34;;;;;;;4.63;1.25;;;;;;;16.69;93.15;96836.28;5053217;28;20040;-57
2023/07/05 04:38:00;;;;;;;3.80;1.30;;;;;;;16.81;92.34;96834.97;5048257;28;20044;-57
2023/07/05 04:40:27;;;;;;;2.47;1.33;;;;;;;16.70;92.83;96826.97;5050190;28;20590;-56
2023/07/05 04:42:53;;;;;;;4.75;1.50;;;;;;;16.57;94.18;96828.63;5036603;28;20037;-57
2023/07/05 04:45:20;;;;;;;3.63;1.20;;;;;;;16.51;94.48;96819.72;5041934;28;20103;-58
2023/07/05 04:47:46;;;;;;;2.50;1.20;;;;;;;16.64;93.56;96825.47;5042846;28;20072;-55
2023/07/05 04:50:13;;;;;;;3.80;1.35;;;;;;;16.76;93.29;96817.56;5047833;28;20511;-55
2023/07/05 04:52:39;;;;;;;3.63;1.08;;;;;;;16.87;91.69;96814.59;5043657;28;20048;-57
2023/07/05 04:55:06;;;;;;;5.75;1.73;;;;;;;16.85;92.33;96816.84;5051966;28;20044;-55
2023/07/05 04:57:33;;;;;;;2.58;1.35;;;;;;;16.83;92.52;96811.66;5042661;28;20036;-56
2023/07/05 05:00:05;;;;;;;5.18;1.67;;;;;;;16.89;92.20;96813.16;5048582;28;20049;-56
2023/07/05 05:02:32;;;;;;;6.28;1.45;;;;;;;16.85;92.90;96795.75;5039732;28;20440;-57
2023/07/05 05:04:59;;;;;;;3.60;1.60;;;;;;;16.92;92.09;96789.06;5042594;28;20098;-57
2023/07/05 05:07:26;;;;;;;4.47;1.50;;;;;;;16.92;92.34;96780.88;5044298;28;20040;-57
2023/07/05 05:09:53;;;;;;;3.08;1.65;;;;;;;16.87;92.81;96782.59;5048047;28;20051;-57
2023/07/05 05:12:19;;;;;;;3.38;1.50;;;;;;;17.03;91.99;96788.53;5059969;28;20523;-57
2023/07/05 05:14:46;;;;;;;4.95;1.70;;;;;;;16.94;92.08;96790.38;5040847;28;20123;-57
2023/07/05 05:17:12;;;;;;;4.03;1.33;;;;;;;17.05;92.33;96801.94;5049879;28;20427;-57
2023/07/05 05:19:39;;;;;;;4.22;1.70;;;;;;;17.08;92.56;96803.22;5051489;28;20048;-57
2023/07/05 05:22:05;;;;;;;2.83;1.35;;;;;;;17.17;92.50;96806.84;5056022;28;20052;-57
2023/07/05 05:24:32;;;;;;;5.95;1.70;;;;;;;17.21;92.39;96805.09;5044818;28;20505;-57
2023/07/05 05:26:58;;;;;;;3.38;1.30;;;;;;;17.42;90.97;96807.34;5044347;28;20507;-56
2023/07/05 05:29:25;;;;;;;4.38;1.65;;;;;;;17.39;91.25;96802.50;5048514;28;20049;-57
2023/07/05 05:31:51;;;;;;;4.05;1.63;;;;;;;17.48;91.07;96813.53;5057850;28;20045;-57
2023/07/05 05:34:18;;;;;;;5.07;1.67;;;;;;;17.44;91.10;96820.75;5045501;28;20265;-57
2023/07/05 05:36:44;;;;;;;2.33;1.13;;;;;;;17.63;90.72;96826.03;5038932;28;20041;-57
2023/07/05 05:39:11;;;;;;;3.53;1.58;;;;;;;17.60;90.28;96834.84;5045203;28;20147;-57
2023/07/05 05:41:37;;;;;;;4.57;1.60;;;;;;;17.70;89.93;96844.75;5043783;28;20044;-57
2023/07/05 05:44:04;;;;;;;2.30;1.38;;;;;;;17.75;89.22;96844.63;5050456;28;20055;-57
2023/07/05 05:46:30;;;;;;;3.20;1.48;;;;;;;17.60;90.03;96848.53;5052181;28;20041;-55
2023/07/05 05:48:57;;;;;;;4.05;1.55;;;;;;;17.53;91.30;96857.19;5048167;28;20064;-57
2023/07/05 05:51:24;;;;;;;3.83;2.20;;;;;;;17.60;90.52;96878.66;5037724;28;20053;-57
2023/07/05 05:53:50;;;;;;;11.27;2.47;;;;;;;17.43;98.90;96893.81;5046465;28;20044;-57
2023/07/05 05:56:18;;;;;;;9.70;2.47;;;;;;;17.08;100.00;96894.31;5048894;28;20037;-57
2023/07/05 05:58:44;;;;;;;6.68;2.15;;;;;;;16.48;100.00;96896.03;5047885;28;20627;-56
2023/07/05 06:01:12;;;;;;;7.20;2.20;;;;;;;16.18;100.00;96914.59;5050703;28;20048;-57
2023/07/05 06:03:39;;;;;;;4.68;1.52;;;;;;;15.82;100.00;96913.25;5052887;28;20147;-58
2023/07/05 06:06:09;;;;;;;5.13;1.50;;;;;;;15.81;100.00;96917.09;5038367;28;20116;-58
2023/07/05 06:08:35;;;;;;;4.43;1.48;;;;;;;15.61;100.00;96924.47;5042520;28;20135;-58
2023/07/05 06:11:04;;;;;;;2.95;1.33;;;;;;;15.55;100.00;96925.66;5039687;28;20051;-58
2023/07/05 06:13:31;;;;;;;3.30;1.25;;;;;;;15.55;100.00;96939.31;5034787;28;20556;-58
2023/07/05 06:16:03;;;;;;;4.57;1.55;;;;;;;15.45;100.00;96924.69;5043858;28;20135;-58
2023/07/05 06:18:42;;;;;;;5.47;1.70;;;;;;;15.53;100.00;96949.69;5045401;28;21295;-58
2023/07/05 06:21:11;;;;;;;3.33;1.10;;;;;;;15.62;100.00;96928.03;5036002;28;20049;-58
2023/07/05 06:23:38;;;;;;;5.13;1.35;;;;;;;15.66;100.00;96934.50;5040837;28;20037;-57
2023/07/05 06:26:04;;;;;;;4.65;1.40;;;;;;;15.70;100.00;96949.19;5050906;28;20111;-58
2023/07/05 06:28:31;;;;;;;3.65;1.25;;;;;;;15.74;100.00;96945.56;5051090;28;20048;-58
2023/07/05 06:31:05;;;;;;;5.80;1.67;;;;;;;15.84;100.00;96947.31;5047324;28;20123;-57
2023/07/05 06:33:31;;;;;;;4.45;1.50;;;;;;;15.83;100.00;96936.69;5053942;28;20701;-58
2023/07/05 06:36:01;;;;;;;2.78;1.15;;;;;;;15.78;100.00;96942.22;5057765;28;20049;-58
2023/07/05 06:38:29;;;;;;;3.65;1.30;;;;;;;15.91;100.00;96954.31;5042140;28;20049;-58
2023/07/05 06:40:56;;;;;;;3.97;1.30;;;;;;;15.95;100.00;96950.72;5040401;28;20059;-58
2023/07/05 06:43:24;;;;;;;5.15;1.65;;;;;;;15.91;100.00;96960.59;5043027;28;20064;-58
2023/07/05 06:45:52;;;;;;;3.15;1.10;;;;;;;15.88;100.00;96952.97;5053596;28;20119;-58
2023/07/05 06:48:20;;;;;;;2.72;1.00;;;;;;;15.89;100.00;96965.56;5052565;28;20624;-58
2023/07/05 06:50:54;;;;;;;3.25;1.10;;;;;;;15.87;100.00;96962.28;5037234;28;20689;-57
2023/07/05 06:53:22;;;;;;;2.55;1.20;;;;;;;15.75;100.00;96968.22;5040342;28;20044;-56
2023/07/05 06:56:09;;;;;;;2.60;1.23;;;;;;;15.78;100.00;96972.25;5047645;28;20041;-57
2023/07/05 06:58:36;;;;;;;2.00;0.98;;;;;;;15.63;100.00;96973.28;5043225;28;20050;-57
2023/07/05 07:01:04;;;;;;;3.30;1.35;;;;;;;15.79;100.00;96982.88;5042745;28;20040;-57
2023/07/05 07:03:30;;;;;;;2.55;1.17;;;;;;;15.96;100.00;96989.78;5054047;28;20040;-58
2023/07/05 07:05:57;;;;;;;2.95;1.35;;;;;;;15.95;100.00;97005.34;5048093;28;20044;-57
2023/07/05 07:08:29;;;;;;;4.00;1.20;;;;;;;16.07;100.00;97002.13;5049630;28;20807;-57
2023/07/05 07:11:00;;;;;;;2.95;1.30;;;;;;;16.16;100.00;97002.28;5048953;28;20048;-56
2023/07/05 07:13:27;;;;;;;2.85;1.25;;;;;;;15.95;100.00;96996.31;5047059;28;20072;-57
2023/07/05 07:16:03;;;;;;;3.83;1.30;;;;;;;15.91;100.00;96998.00;5046369;28;20467;-58
2023/07/05 07:18:29;;;;;;;2.97;1.27;;;;;;;16.02;100.00;97004.13;5056614;28;20501;-58
2023/07/05 07:20:57;;;;;;;2.88;1.00;;;;;;;15.99;100.00;96997.34;5047156;28;20098;-57
2023/07/05 07:23:23;;;;;;;3.30;1.48;;;;;;;16.03;100.00;97005.78;5043811;28;20041;-58
2023/07/05 07:26:05;;;;;;;4.18;1.40;;;;;;;16.05;100.00;97015.28;5047521;28;20125;-58
2023/07/05 07:28:32;;;;;;;4.13;1.23;;;;;;;16.17;100.00;97016.72;5042142;28;20045;-58
2023/07/05 07:31:08;;;;;;;4.72;1.40;;;;;;;16.29;100.00;97024.50;5051407;28;20040;-57
2023/07/05 07:33:34;;;;;;;3.83;1.58;;;;;;;16.45;100.00;97023.13;5048126;28;20118;-57
2023/07/05 07:36:11;;;;;;;2.53;1.38;;;;;;;16.38;100.00;97028.97;5053649;28;20063;-58
2023/07/05 07:38:39;;;;;;;4.68;1.40;;;;;;;16.44;100.00;97024.22;5056515;28;20075;-57
2023/07/05 07:41:20;;;;;;;3.83;1.63;;;;;;;16.42;100.00;97025.63;5049639;28;20037;-58
2023/07/05 07:43:53;;;;;;;6.57;1.58;;;;;;;16.46;100.00;97032.94;5042893;28;20060;-58
2023/07/05 07:46:24;;;;;;;3.53;1.38;;;;;;;16.60;100.00;97040.38;5050979;28;20045;-57
2023/07/05 07:48:54;;;;;;;3.13;1.52;;;;;;;16.38;100.00;97041.81;5048785;28;20055;-59
2023/07/05 07:51:26;;;;;;;3.42;1.65;;;;;;;16.32;100.00;97038.34;5049793;28;20037;-59
2023/07/05 07:54:07;;;;;;;3.25;1.50;;;;;;;16.11;100.00;97049.59;5058159;28;20066;-59
2023/07/05 07:56:33;;;;;;;3.95;1.83;;;;;;;16.02;100.00;97050.56;5050021;28;20049;-58
2023/07/05 07:59:01;;;;;;;4.13;1.90;;;;;;;15.97;100.00;97049.56;5040921;28;20534;-59
2023/07/05 08:01:30;;;;;;;3.53;1.85;;;;;;;16.13;100.00;97046.56;5050334;28;20037;-58
2023/07/05 08:03:59;;;;;;;3.85;1.90;;;;;;;16.02;100.00;97053.28;5046526;28;20705;-58
2023/07/05 08:06:36;;;;;;;6.68;1.98;;;;;;;16.08;100.00;97072.06;5057581;28;20068;-59
2023/07/05 08:09:08;;;;;;;5.28;1.73;;;;;;;15.97;100.00;97060.47;5050411;28;20419;-58
2023/07/05 08:11:35;;;;;;;6.30;2.40;;;;;;;16.20;100.00;97066.13;5052376;28;20075;-58
2023/07/05 08:14:05;;;;;;;4.00;2.10;;;;;;;16.49;100.00;97067.88;5044315;28;20052;-58
2023/07/05 08:16:32;;;;;;;3.65;1.80;;;;;;;16.56;100.00;97067.50;5049425;28;20040;-58
2023/07/05 08:18:58;;;;;;;5.20;2.45;;;;;;;16.46;100.00;97073.94;5050361;28;20045;-57
2023/07/05 08:21:25;;;;;;;4.45;2.45;;;;;;;16.42;100.00;97067.44;5045524;28;20048;-58
2023/07/05 08:23:52;;;;;;;6.15;2.03;;;;;;;16.28;98.96;97070.09;5053568;28;20041;-58
2023/07/05 08:26:21;;;;;;;5.03;2.35;;;;;;;16.37;100.00;97070.25;5040681;28;20535;-58
2023/07/05 08:28:48;;;;;;;5.07;2.20;;;;;;;16.25;96.06;97076.97;5045268;28;20041;-58
2023/07/05 08:31:16;;;;;;;5.93;2.88;;;;;;;16.27;100.00;97082.16;5052381;28;20526;-58
2023/07/05 08:33:44;;;;;;;5.22;2.70;;;;;;;16.42;96.76;97081.09;5055398;28;20056;-58
2023/07/05 08:36:14;;;;;;;5.18;2.20;;;;;;;16.41;95.67;97074.03;5052973;28;20822;-58
2023/07/05 08:38:45;;;;;;;4.65;2.83;;;;;;;16.69;97.57;97084.25;5045439;28;20048;-58
2023/07/05 08:41:31;;;;;;;5.07;2.45;;;;;;;17.00;95.67;97076.28;5055285;28;20135;-58
2023/07/05 08:43:58;;;;;;;5.43;2.35;;;;;;;16.99;89.56;97082.88;5037270;28;20036;-59
2023/07/05 08:46:26;;;;;;;4.47;2.42;;;;;;;16.97;90.50;97076.91;5049314;28;20044;-57
2023/07/05 08:49:00;;;;;;;5.32;2.50;;;;;;;16.94;87.90;97082.16;5034636;28;20068;-57
2023/07/05 08:51:29;;;;;;;7.65;3.60;;;;;;;16.49;88.01;97087.00;5045265;28;20406;-57
2023/07/05 08:54:01;;;;;;;5.18;2.70;;;;;;;16.31;90.71;97090.56;5049192;28;20049;-57
2023/07/05 08:56:53;;;;;;;6.80;2.67;;;;;;;16.49;89.74;97099.84;5053056;28;20048;-57
2023/07/05 08:59:29;;;;;;;5.88;2.67;;;;;;;16.61;89.40;97102.94;5044760;28;20098;-58
2023/07/05 09:01:56;;;;;;;5.28;3.22;;;;;;;16.87;89.97;97098.94;5040606;28;20061;-58
2023/07/05 09:04:27;;;;;;;4.53;2.42;;;;;;;17.03;91.52;97113.97;5054247;28;20048;-58
2023/07/05 09:07:00;;;;;;;5.55;3.10;;;;;;;17.22;87.93;97121.34;5042944;28;20025;-58
2023/07/05 09:09:46;;;;;;;5.85;3.30;;;;;;;17.39;86.10;97114.47;5046225;28;20051;-58
2023/07/05 09:12:28;;;;;;;5.20;3.13;;;;;;;17.74;84.15;97119.53;5051545;28;20110;-57
2023/07/05 09:15:17;;;;;;;5.20;2.90;;;;;;;17.75;83.66;97113.75;5054009;28;20036;-56
2023/07/05 09:18:19;;;;;;;6.43;2.95;;;;;;;17.69;80.16;97123.19;5043759;28;20041;-58
2023/07/05 09:20:55;;;;;;;5.50;2.97;;;;;;;17.80;75.11;97132.03;5048935;28;20049;-57
2023/07/05 09:23:39;;;;;;;5.65;3.10;;;;;;;18.07;76.18;97128.41;5060961;28;20044;-55
2023/07/05 09:26:31;;;;;;;5.15;2.80;;;;;;;18.29;72.44;97126.91;5052729;28;20033;-57
2023/07/05 09:29:13;;;;;;;7.82;2.95;;;;;;;18.14;71.35;97132.72;5052013;28;20049;-57
2023/07/05 09:31:42;;;;;;;4.65;2.60;;;;;;;18.22;71.63;97137.47;5049402;28;20106;-58
2023/07/05 09:34:26;;;;;;;5.03;2.90;;;;;;;18.14;72.12;97119.81;5040671;28;20041;-57
2023/07/05 09:36:53;;;;;;;6.15;3.17;;;;;;;18.27;71.20;97137.34;5034707;28;20029;-58
2023/07/05 09:39:36;;;;;;;6.03;2.80;;;;;;;18.57;64.75;97137.75;5039892;28;20442;-58
2023/07/05 09:42:09;;;;;;;6.85;2.72;;;;;;;18.39;63.56;97139.53;5045740;28;20051;-57
2023/07/05 09:44:35;;;;;;;6.03;2.70;;;;;;;18.40;63.06;97132.97;5050081;28;20037;-57
2023/07/05 09:47:02;;;;;;;5.90;2.85;;;;;;;18.33;60.84;97127.09;5047516;28;20037;-58
2023/07/05 09:49:29;;;;;;;4.93;2.72;;;;;;;18.62;59.43;97142.31;5051242;28;20056;-56
2023/07/05 09:51:59;;;;;;;8.27;2.88;;;;;;;18.44;57.35;97133.13;5051133;28;20802;-58
2023/07/05 09:54:30;;;;;;;5.45;2.42;;;;;;;18.55;58.31;97136.44;5053591;28;20044;-57
2023/07/05 09:57:04;;;;;;;4.78;2.60;;;;;;;18.52;55.07;97137.06;5054974;28;20724;-58
2023/07/05 09:59:36;;;;;;;4.90;2.55;;;;;;;18.52;55.29;97137.06;5046626;28;20052;-57
2023/07/05 10:02:15;;;;;;;;;;;;;;;18.68;57.04;97148.47;5041138;28;20512;-58
2023/07/05 10:04:44;;;;;;;5.40;2.80;;;;;;;18.84;57.83;97135.22;5050342;28;19967;-59
2023/07/05 10:07:16;;;;;;;4.72;2.25;;;;;;;18.85;55.11;97140.41;5048717;28;20504;-58
2023/07/05 10:10:05;;;;;;;5.78;2.65;;;;;;;18.83;54.42;97141.81;5045821;28;20638;-57
2023/07/05 10:12:35;;;;;;;6.65;2.42;;;;;;;18.87;53.76;97145.53;5045544;28;20584;-59
2023/07/05 10:15:15;;;;;;;5.00;2.30;;;;;;;19.18;54.94;97146.75;5042864;28;20116;-59
2023/07/05 10:17:44;;;;;;;4.80;2.47;;;;;;;18.99;57.42;97150.47;5040464;28;20036;-57
2023/07/05 10:20:27;;;;;;;5.05;2.80;;;;;;;18.90;57.69;97138.66;5049357;28;20518;-57
2023/07/05 10:23:04;;;;;;;5.55;2.67;;;;;;;19.37;58.76;97141.03;5046933;28;20156;-56
2023/07/05 10:25:34;;;;;;;4.78;2.47;;;;;;;19.84;57.40;97148.81;5050059;28;20119;-55
2023/07/05 10:28:04;;;;;;;4.47;2.58;;;;;;;19.88;55.64;97160.78;5039378;28;20030;-59
2023/07/05 10:30:33;;;;;;;5.03;2.40;;;;;;;19.92;54.31;97154.63;5042620;28;20055;-58
2023/07/05 10:33:16;;;;;;;5.43;2.30;;;;;;;19.86;54.74;97149.28;5050353;28;20133;-57
2023/07/05 10:35:55;;;;;;;8.00;2.67;;;;;;;20.10;54.15;97166.53;5046615;28;20106;-58
2023/07/05 10:38:28;;;;;;;6.90;2.13;;;;;;;20.48;52.65;97165.94;5058793;28;20036;-58
2023/07/05 10:40:59;;;;;;;5.13;2.70;;;;;;;20.34;51.00;97173.53;5046722;28;20067;-59
2023/07/05 10:43:28;;;;;;;5.27;2.10;;;;;;;20.39;51.38;97160.41;5055292;28;20078;-59
2023/07/05 10:45:54;;;;;;;5.90;2.33;;;;;;;20.40;48.46;97155.72;5052504;28;20275;-58
2023/07/05 10:48:38;;;;;;;5.82;2.28;;;;;;;20.32;45.74;97176.59;5045287;28;20108;-58
2023/07/05 10:51:14;;;;;;;3.60;1.75;;;;;;;20.34;47.43;97173.53;5042317;28;20126;-57
2023/07/05 10:53:46;;;;;;;4.65;2.10;;;;;;;20.61;43.77;97174.34;5053991;28;20048;-57
2023/07/05 10:56:23;;;;;;;5.13;2.22;;;;;;;20.52;42.91;97168.84;5049390;28;20140;-58
2023/07/05 10:59:28;;;;;;;5.50;1.95;;;;;;;20.45;45.77;97172.06;5050100;28;20040;-59
2023/07/05 11:02:12;;;;;;;4.93;2.35;;;;;;;20.25;43.39;97162.50;5042855;28;20092;-61
2023/07/05 11:04:42;;;;;;;7.10;2.60;;;;;;;20.21;42.27;97176.09;5047541;28;20137;-61
2023/07/05 11:07:13;;;;;;;3.20;1.60;;;;;;;20.55;43.62;97159.94;5038313;28;20461;-59
2023/07/05 11:09:41;;;;;;;3.60;1.70;;;;;;;20.40;43.36;97181.31;5054988;28;20293;-59
2023/07/05 11:12:25;;;;;;;5.60;1.83;;;;;;;20.35;43.93;97155.91;5057938;28;20040;-58
2023/07/05 11:14:53;;;;;;;5.53;2.20;;;;;;;20.26;44.63;97164.94;5053913;28;20048;-57
2023/07/05 11:17:41;;;;;;;5.90;2.53;;;;;;;20.27;44.43;97172.03;5050134;28;20041;-58
2023/07/05 11:20:33;;;;;;;4.95;1.98;;;;;;;20.10;45.61;97172.00;5051555;28;20102;-59
2023/07/05 11:23:00;;;;;;;4.30;1.70;;;;;;;20.34;45.04;97166.06;5055741;28;20052;-57
2023/07/05 11:26:06;;;;;;;3.88;1.55;;;;;;;20.02;41.34;97168.13;5046795;28;20561;-60
2023/07/05 11:28:38;;;;;;;3.67;1.85;;;;;;;20.44;41.10;97156.72;5014656;28;20513;-58
2023/07/05 11:31:07;;;;;;;3.00;1.70;;;;;;;20.65;44.46;97165.13;5011171;28;20132;-56
2023/07/05 11:33:34;;;;;;;4.85;2.08;;;;;;;20.43;45.07;97165.28;5026613;28;20052;-58
2023/07/05 11:36:30;;;;;;;4.45;1.70;;;;;;;20.47;43.27;97163.50;5044125;28;20043;-58
2023/07/05 11:38:58;;;;;;;3.47;1.55;;;;;;;20.71;41.89;97165.75;5050479;28;20414;-58
2023/07/05 11:41:24;;;;;;;3.67;1.60;;;;;;;20.58;40.75;97175.81;5046615;28;20052;-59
2023/07/05 11:44:14;;;;;;;4.85;2.10;;;;;;;20.57;40.55;97176.94;5049333;28;20531;-58
2023/07/05 11:46:48;;;;;;;4.13;1.90;;;;;;;20.87;42.61;97168.88;5046859;28;20056;-58
2023/07/05 11:49:20;;;;;;;3.80;1.80;;;;;;;20.88;43.40;97176.00;5051466;28;20038;-58